sensor_id;sensor_type;location;lat;lon;timestamp;pressure;altitude;pressure_sealevel;temperature;humidity
2549;BME280;1284;53.520;10.248;2024-02-26T00:00:33;99656.13;;;7.68;91.48
2549;BME280;1284;53.520;10.248;2024-02-26T00:03:00;99661.28;;;7.58;91.71
2549;BME280;1284;53.520;10.248;2024-02-26T00:05:26;99655.09;;;7.54;91.90
2549;BME280;1284;53.520;10.248;2024-02-26T00:07:51;99665.19;;;7.60;91.97
2549;BME280;1284;53.520;10.248;2024-02-26T00:10:17;99659.34;;;7.55;91.85
2549;BME280;1284;53.520;10.248;2024-02-26T00:12:42;99650.13;;;7.52;91.62
2549;BME280;1284;53.520;10.248;2024-02-26T00:15:08;99656.31;;;7.56;91.46
2549;BME280;1284;53.520;10.248;2024-02-26T00:17:34;99654.31;;;7.53;91.83
2549;BME280;1284;53.520;10.248;2024-02-26T00:19:59;99650.47;;;7.51;91.43
2549;BME280;1284;53.520;10.248;2024-02-26T00:22:26;99657.38;;;7.52;90.89
2549;BME280;1284;53.520;10.248;2024-02-26T00:24:51;99651.53;;;7.46;91.10
2549;BME280;1284;53.520;10.248;2024-02-26T00:27:17;99667.19;;;7.44;90.87
2549;BME280;1284;53.520;10.248;2024-02-26T00:29:42;99660.31;;;7.43;90.51
2549;BME280;1284;53.520;10.248;2024-02-26T00:32:08;99653.34;;;7.39;90.28
2549;BME280;1284;53.520;10.248;2024-02-26T00:34:33;99649.41;;;7.32;90.37
2549;BME280;1284;53.520;10.248;2024-02-26T00:36:59;99649.09;;;7.38;89.55
2549;BME280;1284;53.520;10.248;2024-02-26T00:39:24;99651.63;;;7.27;89.70
2549;BME280;1284;53.520;10.248;2024-02-26T00:41:49;99654.72;;;7.29;89.63
2549;BME280;1284;53.520;10.248;2024-02-26T00:44:17;99656.84;;;7.20;89.31
2549;BME280;1284;53.520;10.248;2024-02-26T00:46:42;99657.56;;;7.17;89.90
2549;BME280;1284;53.520;10.248;2024-02-26T00:49:08;99656.34;;;7.14;90.09
2549;BME280;1284;53.520;10.248;2024-02-26T00:51:33;99645.75;;;6.99;89.91
2549;BME280;1284;53.520;10.248;2024-02-26T00:53:59;99654.09;;;6.94;90.81
2549;BME280;1284;53.520;10.248;2024-02-26T00:56:24;99658.81;;;7.00;90.55
2549;BME280;1284;53.520;10.248;2024-02-26T00:58:50;99657.66;;;7.01;90.54
2549;BME280;1284;53.520;10.248;2024-02-26T01:01:15;99659.50;;;6.97;90.80
2549;BME280;1284;53.520;10.248;2024-02-26T01:03:40;99655.69;;;6.98;91.12
2549;BME280;1284;53.520;10.248;2024-02-26T01:06:06;99656.69;;;6.90;90.83
2549;BME280;1284;53.520;10.248;2024-02-26T01:08:31;99653.31;;;6.93;90.98
2549;BME280;1284;53.520;10.248;2024-02-26T01:10:57;99653.59;;;6.88;90.67
2549;BME280;1284;53.520;10.248;2024-02-26T01:13:22;99661.91;;;6.83;89.96
2549;BME280;1284;53.520;10.248;2024-02-26T01:15:48;99653.25;;;6.90;90.60
2549;BME280;1284;53.520;10.248;2024-02-26T01:18:13;99656.16;;;6.81;90.50
2549;BME280;1284;53.520;10.248;2024-02-26T01:20:39;99656.91;;;6.82;91.08
2549;BME280;1284;53.520;10.248;2024-02-26T01:23:04;99662.06;;;6.90;90.31
2549;BME280;1284;53.520;10.248;2024-02-26T01:25:30;99665.16;;;6.92;89.83
2549;BME280;1284;53.520;10.248;2024-02-26T01:27:55;99658.47;;;6.83;89.70
2549;BME280;1284;53.520;10.248;2024-02-26T01:30:21;99659.88;;;6.77;89.51
2549;BME280;1284;53.520;10.248;2024-02-26T01:32:46;99663.34;;;6.77;90.05
2549;BME280;1284;53.520;10.248;2024-02-26T01:35:11;99660.56;;;6.74;90.04
2549;BME280;1284;53.520;10.248;2024-02-26T01:37:38;99666.22;;;6.69;89.29
2549;BME280;1284;53.520;10.248;2024-02-26T01:40:04;99660.44;;;6.67;89.47
2549;BME280;1284;53.520;10.248;2024-02-26T01:42:31;99661.91;;;6.64;89.59
2549;BME280;1284;53.520;10.248;2024-02-26T01:44:57;99655.81;;;6.64;89.05
2549;BME280;1284;53.520;10.248;2024-02-26T01:47:23;99653.13;;;6.64;88.92
2549;BME280;1284;53.520;10.248;2024-02-26T01:49:48;99656.50;;;6.61;89.05
2549;BME280;1284;53.520;10.248;2024-02-26T01:52:14;99654.91;;;6.56;88.85
2549;BME280;1284;53.520;10.248;2024-02-26T01:54:41;99668.59;;;6.55;88.83
2549;BME280;1284;53.520;10.248;2024-02-26T01:57:08;99665.50;;;6.53;88.64
2549;BME280;1284;53.520;10.248;2024-02-26T01:59:34;99671.50;;;6.46;88.86
2549;BME280;1284;53.520;10.248;2024-02-26T02:02:01;99662.69;;;6.46;89.12
2549;BME280;1284;53.520;10.248;2024-02-26T02:04:29;99671.50;;;6.46;88.91
2549;BME280;1284;53.520;10.248;2024-02-26T02:06:55;99669.09;;;6.41;88.86
2549;BME280;1284;53.520;10.248;2024-02-26T02:09:22;99665.72;;;6.44;88.50
2549;BME280;1284;53.520;10.248;2024-02-26T02:11:48;99665.72;;;6.44;87.75
2549;BME280;1284;53.520;10.248;2024-02-26T02:14:14;99668.25;;;6.37;88.25
2549;BME280;1284;53.520;10.248;2024-02-26T02:16:39;99662.91;;;6.37;88.14
2549;BME280;1284;53.520;10.248;2024-02-26T02:19:08;99659.78;;;6.35;88.35
2549;BME280;1284;53.520;10.248;2024-02-26T02:21:33;99652.19;;;6.37;87.84
2549;BME280;1284;53.520;10.248;2024-02-26T02:23:59;99660.22;;;6.37;87.79
2549;BME280;1284;53.520;10.248;2024-02-26T02:26:24;99672.66;;;6.29;88.20
2549;BME280;1284;53.520;10.248;2024-02-26T02:28:50;99673.44;;;6.30;87.38
2549;BME280;1284;53.520;10.248;2024-02-26T02:31:16;99679.41;;;6.23;88.73
2549;BME280;1284;53.520;10.248;2024-02-26T02:33:41;99670.22;;;6.21;88.50
2549;BME280;1284;53.520;10.248;2024-02-26T02:36:07;99666.69;;;6.17;88.81
2549;BME280;1284;53.520;10.248;2024-02-26T02:38:36;99669.50;;;6.24;88.64
2549;BME280;1284;53.520;10.248;2024-02-26T02:41:02;99665.28;;;6.23;88.10
2549;BME280;1284;53.520;10.248;2024-02-26T02:43:27;99669.06;;;6.22;88.62
2549;BME280;1284;53.520;10.248;2024-02-26T02:45:52;99668.50;;;6.13;88.35
2549;BME280;1284;53.520;10.248;2024-02-26T02:48:18;99676.16;;;6.14;89.14
2549;BME280;1284;53.520;10.248;2024-02-26T02:50:43;99682.81;;;6.05;89.51
2549;BME280;1284;53.520;10.248;2024-02-26T02:53:09;99671.09;;;6.09;89.79
2549;BME280;1284;53.520;10.248;2024-02-26T02:55:35;99674.53;;;6.10;89.89
2549;BME280;1284;53.520;10.248;2024-02-26T02:58:00;99670.31;;;6.09;88.68
2549;BME280;1284;53.520;10.248;2024-02-26T03:00:26;99682.81;;;6.05;89.09
2549;BME280;1284;53.520;10.248;2024-02-26T03:02:51;99670.50;;;6.00;88.45
2549;BME280;1284;53.520;10.248;2024-02-26T03:05:17;99675.41;;;5.98;88.57
2549;BME280;1284;53.520;10.248;2024-02-26T03:07:42;99675.53;;;6.02;88.22
2549;BME280;1284;53.520;10.248;2024-02-26T03:10:08;99680.34;;;5.96;88.09
2549;BME280;1284;53.520;10.248;2024-02-26T03:12:34;99680.34;;;5.96;88.79
2549;BME280;1284;53.520;10.248;2024-02-26T03:14:59;99687.91;;;5.94;88.79
2549;BME280;1284;53.520;10.248;2024-02-26T03:17:28;99684.16;;;5.95;88.68
2549;BME280;1284;53.520;10.248;2024-02-26T03:19:54;99683.28;;;5.91;88.91
2549;BME280;1284;53.520;10.248;2024-02-26T03:22:20;99677.94;;;5.91;88.82
2549;BME280;1284;53.520;10.248;2024-02-26T03:24:46;99680.97;;;5.90;88.59
2549;BME280;1284;53.520;10.248;2024-02-26T03:27:11;99682.06;;;5.89;88.70
2549;BME280;1284;53.520;10.248;2024-02-26T03:29:38;99686.38;;;5.93;88.02
2549;BME280;1284;53.520;10.248;2024-02-26T03:32:04;99693.81;;;5.84;88.62
2549;BME280;1284;53.520;10.248;2024-02-26T03:34:29;99682.34;;;5.84;88.48
2549;BME280;1284;53.520;10.248;2024-02-26T03:36:56;99695.16;;;5.78;88.57
2549;BME280;1284;53.520;10.248;2024-02-26T03:39:22;99680.88;;;5.71;88.57
2549;BME280;1284;53.520;10.248;2024-02-26T03:41:48;99693.97;;;5.76;88.89
2549;BME280;1284;53.520;10.248;2024-02-26T03:44:14;99699.66;;;5.74;88.42
2549;BME280;1284;53.520;10.248;2024-02-26T03:46:40;99703.09;;;5.75;88.51
2549;BME280;1284;53.520;10.248;2024-02-26T03:49:08;99695.84;;;5.75;88.81
2549;BME280;1284;53.520;10.248;2024-02-26T03:51:33;99703.84;;;5.75;88.53
2549;BME280;1284;53.520;10.248;2024-02-26T03:53:59;99712.38;;;5.81;88.39
2549;BME280;1284;53.520;10.248;2024-02-26T03:56:25;99714.22;;;5.77;87.92
2549;BME280;1284;53.520;10.248;2024-02-26T03:58:50;99712.22;;;5.74;87.83
2549;BME280;1284;53.520;10.248;2024-02-26T04:01:16;99720.31;;;5.77;87.67
2549;BME280;1284;53.520;10.248;2024-02-26T04:03:41;99734.81;;;5.76;87.68
2549;BME280;1284;53.520;10.248;2024-02-26T04:06:10;99734.28;;;5.71;88.48
2549;BME280;1284;53.520;10.248;2024-02-26T04:08:36;99736.84;;;5.67;88.79
2549;BME280;1284;53.520;10.248;2024-02-26T04:11:03;99735.16;;;5.59;88.53
2549;BME280;1284;53.520;10.248;2024-02-26T04:13:36;99748.50;;;5.59;88.63
2549;BME280;1284;53.520;10.248;2024-02-26T04:16:06;99742.47;;;5.62;88.53
2549;BME280;1284;53.520;10.248;2024-02-26T04:18:34;99741.34;;;5.63;88.01
2549;BME280;1284;53.520;10.248;2024-02-26T04:21:00;99758.56;;;5.66;88.26
2549;BME280;1284;53.520;10.248;2024-02-26T04:23:25;99759.84;;;5.72;87.51
2549;BME280;1284;53.520;10.248;2024-02-26T04:25:50;99771.56;;;5.67;87.07
2549;BME280;1284;53.520;10.248;2024-02-26T04:28:18;99765.72;;;5.62;86.94
2549;BME280;1284;53.520;10.248;2024-02-26T04:30:46;99771.66;;;5.55;87.57
2549;BME280;1284;53.520;10.248;2024-02-26T04:33:12;99779.59;;;5.52;87.58
2549;BME280;1284;53.520;10.248;2024-02-26T04:35:37;99783.34;;;5.50;87.64
2549;BME280;1284;53.520;10.248;2024-02-26T04:38:05;99794.28;;;5.45;87.78
2549;BME280;1284;53.520;10.248;2024-02-26T04:40:31;99807.63;;;5.45;86.95
2549;BME280;1284;53.520;10.248;2024-02-26T04:42:56;99819.34;;;5.41;87.29
2549;BME280;1284;53.520;10.248;2024-02-26T04:45:22;99802.53;;;5.40;87.81
2549;BME280;1284;53.520;10.248;2024-02-26T04:47:48;99808.13;;;5.35;88.16
2549;BME280;1284;53.520;10.248;2024-02-26T04:50:13;99810.53;;;5.40;88.26
2549;BME280;1284;53.520;10.248;2024-02-26T04:52:38;99812.47;;;5.40;88.23
2549;BME280;1284;53.520;10.248;2024-02-26T04:55:04;99810.78;;;5.35;87.75
2549;BME280;1284;53.520;10.248;2024-02-26T04:57:29;99805.38;;;5.32;87.81
2549;BME280;1284;53.520;10.248;2024-02-26T04:59:55;99808.78;;;5.32;88.65
2549;BME280;1284;53.520;10.248;2024-02-26T05:02:20;99813.22;;;5.40;88.04
2549;BME280;1284;53.520;10.248;2024-02-26T05:04:46;99817.78;;;5.40;87.66
2549;BME280;1284;53.520;10.248;2024-02-26T05:07:11;99824.31;;;5.42;86.91
2549;BME280;1284;53.520;10.248;2024-02-26T05:09:37;99816.47;;;5.34;87.36
2549;BME280;1284;53.520;10.248;2024-02-26T05:12:03;99814.47;;;5.31;87.96
2549;BME280;1284;53.520;10.248;2024-02-26T05:14:29;99818.28;;;5.30;88.17
2549;BME280;1284;53.520;10.248;2024-02-26T05:16:54;99823.69;;;5.33;88.31
2549;BME280;1284;53.520;10.248;2024-02-26T05:19:19;99816.78;;;5.32;87.86
2549;BME280;1284;53.520;10.248;2024-02-26T05:21:45;99829.63;;;5.27;88.34
2549;BME280;1284;53.520;10.248;2024-02-26T05:24:12;99822.03;;;5.29;88.67
2549;BME280;1284;53.520;10.248;2024-02-26T05:26:38;99820.84;;;5.26;88.13
2549;BME280;1284;53.520;10.248;2024-02-26T05:29:03;99818.38;;;5.33;88.24
2549;BME280;1284;53.520;10.248;2024-02-26T05:31:29;99819.91;;;5.34;87.55
2549;BME280;1284;53.520;10.248;2024-02-26T05:33:54;99829.25;;;5.28;88.11
2549;BME280;1284;53.520;10.248;2024-02-26T05:36:21;99830.84;;;5.29;88.28
2549;BME280;1284;53.520;10.248;2024-02-26T05:38:48;99832.06;;;5.32;88.24
2549;BME280;1284;53.520;10.248;2024-02-26T05:41:16;99838.41;;;5.27;88.82
2549;BME280;1284;53.520;10.248;2024-02-26T05:43:48;99834.28;;;5.30;89.02
2549;BME280;1284;53.520;10.248;2024-02-26T05:46:16;99842.63;;;5.28;89.06
2549;BME280;1284;53.520;10.248;2024-02-26T05:48:42;99838.84;;;5.29;89.54
2549;BME280;1284;53.520;10.248;2024-02-26T05:51:09;99842.28;;;5.30;88.62
2549;BME280;1284;53.520;10.248;2024-02-26T05:53:34;99839.94;;;5.28;89.59
2549;BME280;1284;53.520;10.248;2024-02-26T05:55:59;99843.84;;;5.31;89.01
2549;BME280;1284;53.520;10.248;2024-02-26T05:58:25;99843.94;;;5.34;88.71
2549;BME280;1284;53.520;10.248;2024-02-26T06:00:50;99848.72;;;5.29;88.97
2549;BME280;1284;53.520;10.248;2024-02-26T06:03:19;99841.94;;;5.31;89.04
2549;BME280;1284;53.520;10.248;2024-02-26T06:05:44;99857.84;;;5.40;89.14
2549;BME280;1284;53.520;10.248;2024-02-26T06:08:09;99858.69;;;5.44;88.92
2549;BME280;1284;53.520;10.248;2024-02-26T06:10:35;99862.81;;;5.41;88.42
2549;BME280;1284;53.520;10.248;2024-02-26T06:13:00;99862.38;;;5.39;88.91
2549;BME280;1284;53.520;10.248;2024-02-26T06:15:26;99867.72;;;5.39;88.71
2549;BME280;1284;53.520;10.248;2024-02-26T06:17:51;99864.28;;;5.39;88.80
2549;BME280;1284;53.520;10.248;2024-02-26T06:20:16;99865.94;;;5.43;88.92
2549;BME280;1284;53.520;10.248;2024-02-26T06:22:42;99859.47;;;5.44;88.97
2549;BME280;1284;53.520;10.248;2024-02-26T06:25:08;99866.38;;;5.45;88.50
2549;BME280;1284;53.520;10.248;2024-02-26T06:27:34;99867.81;;;5.43;89.00
2549;BME280;1284;53.520;10.248;2024-02-26T06:30:00;99879.59;;;5.42;89.38
2549;BME280;1284;53.520;10.248;2024-02-26T06:32:25;99875.47;;;5.44;89.62
2549;BME280;1284;53.520;10.248;2024-02-26T06:34:53;99875.63;;;5.36;89.72
2549;BME280;1284;53.520;10.248;2024-02-26T06:37:18;99874.84;;;5.35;89.96
2549;BME280;1284;53.520;10.248;2024-02-26T06:39:43;99875.41;;;5.29;90.40
2549;BME280;1284;53.520;10.248;2024-02-26T06:42:09;99860.81;;;5.11;90.81
2549;BME280;1284;53.520;10.248;2024-02-26T06:44:34;99872.03;;;5.16;91.65
2549;BME280;1284;53.520;10.248;2024-02-26T06:47:00;99869.81;;;5.06;92.71
2549;BME280;1284;53.520;10.248;2024-02-26T06:49:26;99871.59;;;5.14;92.08
2549;BME280;1284;53.520;10.248;2024-02-26T06:51:52;99879.00;;;5.21;92.05
2549;BME280;1284;53.520;10.248;2024-02-26T06:54:17;99885.81;;;5.06;92.93
2549;BME280;1284;53.520;10.248;2024-02-26T06:56:43;99896.88;;;5.32;92.42
2549;BME280;1284;53.520;10.248;2024-02-26T06:59:08;99901.38;;;5.44;91.99
2549;BME280;1284;53.520;10.248;2024-02-26T07:01:34;99901.63;;;5.39;92.19
2549;BME280;1284;53.520;10.248;2024-02-26T07:03:59;99907.31;;;5.37;92.71
2549;BME280;1284;53.520;10.248;2024-02-26T07:06:27;99900.81;;;5.50;92.70
2549;BME280;1284;53.520;10.248;2024-02-26T07:08:52;99899.13;;;5.58;92.89
2549;BME280;1284;53.520;10.248;2024-02-26T07:11:17;99911.59;;;5.54;92.93
2549;BME280;1284;53.520;10.248;2024-02-26T07:13:45;99904.38;;;5.55;92.72
2549;BME280;1284;53.520;10.248;2024-02-26T07:16:11;99911.16;;;5.52;93.63
2549;BME280;1284;53.520;10.248;2024-02-26T07:18:37;99908.25;;;5.57;93.24
2549;BME280;1284;53.520;10.248;2024-02-26T07:21:02;99914.28;;;5.54;93.42
2549;BME280;1284;53.520;10.248;2024-02-26T07:23:29;99919.69;;;5.58;94.11
2549;BME280;1284;53.520;10.248;2024-02-26T07:25:54;99915.44;;;5.69;94.09
2549;BME280;1284;53.520;10.248;2024-02-26T07:28:19;99930.31;;;5.82;93.31
2549;BME280;1284;53.520;10.248;2024-02-26T07:30:45;99925.66;;;5.79;93.15
2549;BME280;1284;53.520;10.248;2024-02-26T07:33:11;99935.25;;;5.68;93.76
2549;BME280;1284;53.520;10.248;2024-02-26T07:35:36;99927.00;;;5.73;93.55
2549;BME280;1284;53.520;10.248;2024-02-26T07:38:04;99929.44;;;5.78;94.16
2549;BME280;1284;53.520;10.248;2024-02-26T07:40:30;99930.00;;;5.83;93.61
2549;BME280;1284;53.520;10.248;2024-02-26T07:42:55;99939.84;;;5.95;93.69
2549;BME280;1284;53.520;10.248;2024-02-26T07:45:21;99949.75;;;5.94;94.29
2549;BME280;1284;53.520;10.248;2024-02-26T07:47:47;99945.47;;;6.05;93.59
2549;BME280;1284;53.520;10.248;2024-02-26T07:50:12;99952.03;;;6.08;93.80
2549;BME280;1284;53.520;10.248;2024-02-26T07:52:38;99957.13;;;6.13;93.74
2549;BME280;1284;53.520;10.248;2024-02-26T07:55:04;99962.91;;;6.15;93.90
2549;BME280;1284;53.520;10.248;2024-02-26T07:57:31;99963.94;;;6.10;93.91
2549;BME280;1284;53.520;10.248;2024-02-26T07:59:56;99972.69;;;6.23;93.54
2549;BME280;1284;53.520;10.248;2024-02-26T08:02:22;99968.22;;;6.27;93.57
2549;BME280;1284;53.520;10.248;2024-02-26T08:04:47;99977.34;;;6.26;94.05
2549;BME280;1284;53.520;10.248;2024-02-26T08:07:12;99973.38;;;6.35;93.77
2549;BME280;1284;53.520;10.248;2024-02-26T08:09:38;99972.34;;;6.40;93.04
2549;BME280;1284;53.520;10.248;2024-02-26T08:12:04;99978.56;;;6.44;93.53
2549;BME280;1284;53.520;10.248;2024-02-26T08:14:29;99983.06;;;6.40;93.78
2549;BME280;1284;53.520;10.248;2024-02-26T08:16:55;99979.34;;;6.45;94.14
2549;BME280;1284;53.520;10.248;2024-02-26T08:19:20;99980.75;;;6.54;93.70
2549;BME280;1284;53.520;10.248;2024-02-26T08:21:46;99986.69;;;6.63;93.87
2549;BME280;1284;53.520;10.248;2024-02-26T08:24:11;99980.06;;;6.73;93.12
2549;BME280;1284;53.520;10.248;2024-02-26T08:26:37;99987.28;;;6.72;93.16
2549;BME280;1284;53.520;10.248;2024-02-26T08:29:02;99991.19;;;6.75;93.41
2549;BME280;1284;53.520;10.248;2024-02-26T08:31:28;99988.88;;;6.73;93.84
2549;BME280;1284;53.520;10.248;2024-02-26T08:33:53;99976.09;;;6.82;93.92
2549;BME280;1284;53.520;10.248;2024-02-26T08:36:19;99989.81;;;6.81;94.30
2549;BME280;1284;53.520;10.248;2024-02-26T08:38:44;99992.91;;;6.83;94.92
2549;BME280;1284;53.520;10.248;2024-02-26T08:41:09;99995.94;;;6.81;94.32
2549;BME280;1284;53.520;10.248;2024-02-26T08:43:35;99993.44;;;6.88;94.37
2549;BME280;1284;53.520;10.248;2024-02-26T08:46:01;99995.84;;;6.93;94.01
2549;BME280;1284;53.520;10.248;2024-02-26T08:48:26;100000.50;;;6.96;94.13
2549;BME280;1284;53.520;10.248;2024-02-26T08:50:52;100006.81;;;7.04;94.19
2549;BME280;1284;53.520;10.248;2024-02-26T08:53:17;100006.19;;;7.10;93.57
2549;BME280;1284;53.520;10.248;2024-02-26T08:55:43;100009.47;;;7.19;93.80
2549;BME280;1284;53.520;10.248;2024-02-26T08:58:08;100011.00;;;7.20;93.82
2549;BME280;1284;53.520;10.248;2024-02-26T09:00:33;100013.00;;;7.23;94.01
2549;BME280;1284;53.520;10.248;2024-02-26T09:02:59;100016.78;;;7.22;93.58
2549;BME280;1284;53.520;10.248;2024-02-26T09:05:24;100024.81;;;7.22;93.46
2549;BME280;1284;53.520;10.248;2024-02-26T09:07:50;100023.44;;;7.28;93.85
2549;BME280;1284;53.520;10.248;2024-02-26T09:10:17;100018.41;;;7.43;93.55
2549;BME280;1284;53.520;10.248;2024-02-26T09:12:42;100016.94;;;7.45;93.83
2549;BME280;1284;53.520;10.248;2024-02-26T09:15:08;100024.69;;;7.50;94.13
2549;BME280;1284;53.520;10.248;2024-02-26T09:17:34;100027.19;;;7.59;94.66
2549;BME280;1284;53.520;10.248;2024-02-26T09:19:59;100025.78;;;7.65;94.56
2549;BME280;1284;53.520;10.248;2024-02-26T09:22:25;100024.38;;;7.71;94.67
2549;BME280;1284;53.520;10.248;2024-02-26T09:24:50;100029.91;;;7.78;94.40
2549;BME280;1284;53.520;10.248;2024-02-26T09:27:17;100028.34;;;7.77;94.38
2549;BME280;1284;53.520;10.248;2024-02-26T09:29:43;100030.81;;;7.85;94.60
2549;BME280;1284;53.520;10.248;2024-02-26T09:32:08;100039.78;;;7.74;94.72
2549;BME280;1284;53.520;10.248;2024-02-26T09:34:33;100046.91;;;7.85;94.50
2549;BME280;1284;53.520;10.248;2024-02-26T09:36:59;100032.78;;;7.88;94.71
2549;BME280;1284;53.520;10.248;2024-02-26T09:39:26;100038.66;;;7.94;93.79
2549;BME280;1284;53.520;10.248;2024-02-26T09:41:53;100049.16;;;8.02;94.18
2549;BME280;1284;53.520;10.248;2024-02-26T09:44:20;100046.19;;;8.07;93.95
2549;BME280;1284;53.520;10.248;2024-02-26T09:46:48;100047.84;;;8.12;94.34
2549;BME280;1284;53.520;10.248;2024-02-26T09:49:18;100052.16;;;8.16;94.06
2549;BME280;1284;53.520;10.248;2024-02-26T09:51:45;100049.78;;;8.15;94.40
2549;BME280;1284;53.520;10.248;2024-02-26T09:54:11;100050.22;;;8.17;94.76
2549;BME280;1284;53.520;10.248;2024-02-26T09:56:39;100051.16;;;8.25;94.92
2549;BME280;1284;53.520;10.248;2024-02-26T09:59:10;100043.91;;;8.25;94.57
2549;BME280;1284;53.520;10.248;2024-02-26T10:01:39;100063.72;;;8.20;94.67
2549;BME280;1284;53.520;10.248;2024-02-26T10:04:08;100049.97;;;8.22;94.83
2549;BME280;1284;53.520;10.248;2024-02-26T10:06:36;100059.72;;;8.30;95.19
2549;BME280;1284;53.520;10.248;2024-02-26T10:09:02;100069.44;;;8.38;95.20
2549;BME280;1284;53.520;10.248;2024-02-26T10:11:32;100063.03;;;8.43;95.05
2549;BME280;1284;53.520;10.248;2024-02-26T10:13:57;100053.28;;;8.35;95.24
2549;BME280;1284;53.520;10.248;2024-02-26T10:16:24;100062.19;;;8.39;95.13
2549;BME280;1284;53.520;10.248;2024-02-26T10:18:51;100067.41;;;8.51;95.04
2549;BME280;1284;53.520;10.248;2024-02-26T10:21:22;100064.56;;;8.63;94.54
2549;BME280;1284;53.520;10.248;2024-02-26T10:23:48;100077.13;;;8.59;94.07
2549;BME280;1284;53.520;10.248;2024-02-26T10:26:15;100072.03;;;8.54;94.38
2549;BME280;1284;53.520;10.248;2024-02-26T10:28:42;100063.66;;;8.55;94.03
2549;BME280;1284;53.520;10.248;2024-02-26T10:31:09;100058.97;;;8.52;94.62
2549;BME280;1284;53.520;10.248;2024-02-26T10:33:36;100070.63;;;8.60;94.79
2549;BME280;1284;53.520;10.248;2024-02-26T10:36:03;100083.47;;;8.70;94.83
2549;BME280;1284;53.520;10.248;2024-02-26T10:38:30;100084.69;;;8.72;94.77
2549;BME280;1284;53.520;10.248;2024-02-26T10:40:57;100082.41;;;8.74;94.40
2549;BME280;1284;53.520;10.248;2024-02-26T10:43:22;100096.44;;;8.87;94.42
2549;BME280;1284;53.520;10.248;2024-02-26T10:45:48;100092.25;;;8.89;94.60
2549;BME280;1284;53.520;10.248;2024-02-26T10:48:14;100096.91;;;8.92;94.30
2549;BME280;1284;53.520;10.248;2024-02-26T10:50:40;100094.47;;;9.06;94.13
2549;BME280;1284;53.520;10.248;2024-02-26T10:53:13;100091.84;;;8.87;93.75
2549;BME280;1284;53.520;10.248;2024-02-26T10:55:41;100095.47;;;8.76;94.30
2549;BME280;1284;53.520;10.248;2024-02-26T10:58:08;100101.63;;;8.99;94.51
2549;BME280;1284;53.520;10.248;2024-02-26T11:00:35;100099.91;;;9.10;93.91
2549;BME280;1284;53.520;10.248;2024-02-26T11:03:02;100100.38;;;9.16;93.72
2549;BME280;1284;53.520;10.248;2024-02-26T11:05:28;100103.91;;;9.20;93.59
2549;BME280;1284;53.520;10.248;2024-02-26T11:07:55;100098.94;;;9.22;93.86
2549;BME280;1284;53.520;10.248;2024-02-26T11:10:21;100103.72;;;9.32;93.19
2549;BME280;1284;53.520;10.248;2024-02-26T11:12:48;100098.06;;;9.37;93.34
2549;BME280;1284;53.520;10.248;2024-02-26T11:15:15;100094.31;;;9.45;93.15
2549;BME280;1284;53.520;10.248;2024-02-26T11:17:42;100100.47;;;9.45;93.12
2549;BME280;1284;53.520;10.248;2024-02-26T11:20:10;100096.72;;;9.50;93.52
2549;BME280;1284;53.520;10.248;2024-02-26T11:22:38;100105.84;;;9.19;93.46
2549;BME280;1284;53.520;10.248;2024-02-26T11:25:04;100105.44;;;9.43;93.30
2549;BME280;1284;53.520;10.248;2024-02-26T11:27:35;100096.53;;;9.62;92.65
2549;BME280;1284;53.520;10.248;2024-02-26T11:30:02;100100.84;;;9.70;92.27
2549;BME280;1284;53.520;10.248;2024-02-26T11:32:30;100100.19;;;9.76;91.40
2549;BME280;1284;53.520;10.248;2024-02-26T11:34:57;100114.03;;;9.78;91.66
2549;BME280;1284;53.520;10.248;2024-02-26T11:37:23;100109.41;;;9.75;92.61
2549;BME280;1284;53.520;10.248;2024-02-26T11:39:51;100107.47;;;9.76;92.60
2549;BME280;1284;53.520;10.248;2024-02-26T11:42:17;100112.22;;;9.86;92.09
2549;BME280;1284;53.520;10.248;2024-02-26T11:44:42;100110.41;;;9.93;91.74
2549;BME280;1284;53.520;10.248;2024-02-26T11:47:18;100114.16;;;9.59;92.59
2549;BME280;1284;53.520;10.248;2024-02-26T11:49:44;100125.47;;;9.72;92.31
2549;BME280;1284;53.520;10.248;2024-02-26T11:52:10;100121.53;;;9.92;91.94
2549;BME280;1284;53.520;10.248;2024-02-26T11:54:58;100133.38;;;9.87;90.93
2549;BME280;1284;53.520;10.248;2024-02-26T11:57:25;100121.16;;;9.93;91.06
2549;BME280;1284;53.520;10.248;2024-02-26T11:59:52;100120.19;;;10.05;90.64
2549;BME280;1284;53.520;10.248;2024-02-26T12:05:07;100130.47;;;9.99;90.56
2549;BME280;1284;53.520;10.248;2024-02-26T12:07:34;100133.22;;;10.03;90.07
2549;BME280;1284;53.520;10.248;2024-02-26T12:10:22;100128.16;;;9.98;90.84
2549;BME280;1284;53.520;10.248;2024-02-26T12:13:18;100134.78;;;10.04;90.42
2549;BME280;1284;53.520;10.248;2024-02-26T12:16:05;100139.06;;;10.09;90.74
2549;BME280;1284;53.520;10.248;2024-02-26T12:18:31;100139.16;;;10.12;90.33
2549;BME280;1284;53.520;10.248;2024-02-26T12:21:03;100144.28;;;10.24;90.03
2549;BME280;1284;53.520;10.248;2024-02-26T12:23:30;100146.84;;;10.14;90.23
2549;BME280;1284;53.520;10.248;2024-02-26T12:26:02;100152.47;;;10.31;89.60
2549;BME280;1284;53.520;10.248;2024-02-26T12:28:31;100151.72;;;10.34;89.43
2549;BME280;1284;53.520;10.248;2024-02-26T12:30:57;100152.06;;;10.29;89.02
2549;BME280;1284;53.520;10.248;2024-02-26T12:33:25;100161.78;;;10.37;89.56
2549;BME280;1284;53.520;10.248;2024-02-26T12:35:52;100164.22;;;10.49;89.35
2549;BME280;1284;53.520;10.248;2024-02-26T12:38:17;100163.41;;;10.45;89.06
2549;BME280;1284;53.520;10.248;2024-02-26T12:40:44;100162.88;;;10.33;88.88
2549;BME280;1284;53.520;10.248;2024-02-26T12:43:09;100168.75;;;10.42;88.60
2549;BME280;1284;53.520;10.248;2024-02-26T12:45:41;100174.16;;;10.45;88.47
2549;BME280;1284;53.520;10.248;2024-02-26T12:48:07;100183.03;;;10.46;88.31
2549;BME280;1284;53.520;10.248;2024-02-26T12:50:33;100173.38;;;10.41;87.70
2549;BME280;1284;53.520;10.248;2024-02-26T12:52:59;100180.66;;;10.41;87.53
2549;BME280;1284;53.520;10.248;2024-02-26T12:55:24;100176.44;;;10.43;88.20
2549;BME280;1284;53.520;10.248;2024-02-26T12:57:52;100184.31;;;10.55;87.53
2549;BME280;1284;53.520;10.248;2024-02-26T13:00:20;100176.63;;;10.57;87.37
2549;BME280;1284;53.520;10.248;2024-02-26T13:02:48;100191.38;;;10.67;87.70
2549;BME280;1284;53.520;10.248;2024-02-26T13:05:15;100192.16;;;10.67;87.76
2549;BME280;1284;53.520;10.248;2024-02-26T13:07:42;100194.91;;;10.74;88.11
2549;BME280;1284;53.520;10.248;2024-02-26T13:10:08;100195.28;;;10.73;88.21
2549;BME280;1284;53.520;10.248;2024-02-26T13:12:34;100198.09;;;10.80;87.58
2549;BME280;1284;53.520;10.248;2024-02-26T13:15:03;100204.63;;;10.82;87.39